Time;durP1;ratioP1;P1;durP2;ratioP2;P2;SDS_P1;SDS_P2;PMS_P1;PMS_P2;Temp;Humidity;BMP_temperature;BMP_pressure;BME280_temperature;BME280_humidity;BME280_pressure;Samples;Min_cycle;Max_cycle;Signal;HPM_P1;HPM_P2
2022/10/31 00:02:36;;;;;;;19.88;11.35;;;15.40;95.00;;;;;;4917291;29;20040;-67
2022/10/31 00:05:43;;;;;;;23.27;13.10;;;15.30;94.80;;;;;;4917239;29;20055;-67
2022/10/31 00:08:51;;;;;;;25.10;12.93;;;15.30;94.80;;;;;;4917308;29;20043;-67
2022/10/31 00:11:55;;;;;;;20.98;12.07;;;15.20;95.00;;;;;;4917117;29;20052;-67
2022/10/31 00:14:59;;;;;;;26.67;13.00;;;15.20;95.20;;;;;;4916275;29;20047;-67
2022/10/31 00:18:08;;;;;;;23.45;12.43;;;15.20;95.40;;;;;;4916906;29;20051;-68
2022/10/31 00:21:12;;;;;;;27.42;13.02;;;15.20;95.20;;;;;;4917190;29;20044;-67
2022/10/31 00:24:16;;;;;;;23.75;12.30;;;15.20;95.20;;;;;;4915963;29;20075;-67
2022/10/31 00:27:20;;;;;;;26.20;12.88;;;15.30;94.90;;;;;;4916728;29;20047;-67
2022/10/31 00:30:24;;;;;;;23.38;12.52;;;15.20;94.50;;;;;;4917185;29;20511;-67
2022/10/31 00:33:28;;;;;;;29.25;13.27;;;15.20;94.50;;;;;;4916907;29;20051;-67
2022/10/31 00:36:33;;;;;;;26.15;12.95;;;15.10;94.40;;;;;;4916725;29;20047;-69
2022/10/31 00:39:36;;;;;;;22.98;12.30;;;14.90;95.00;;;;;;4915758;29;20440;-68
2022/10/31 00:42:41;;;;;;;29.45;12.52;;;14.90;94.80;;;;;;4916402;29;20059;-67
2022/10/31 00:45:45;;;;;;;22.27;11.73;;;14.90;94.90;;;;;;4915738;29;20401;-67
2022/10/31 00:48:49;;;;;;;18.40;11.32;;;14.90;94.90;;;;;;4915465;29;20082;-67
2022/10/31 00:51:53;;;;;;;19.15;11.73;;;14.80;94.30;;;;;;4915553;29;20047;-68
2022/10/31 00:54:57;;;;;;;22.02;11.30;;;14.70;94.30;;;;;;4915693;29;20113;-68
2022/10/31 00:58:01;;;;;;;23.77;11.65;;;14.60;94.60;;;;;;4915631;29;20051;-68
2022/10/31 01:01:05;;;;;;;26.73;12.75;;;14.70;95.00;;;;;;4915425;29;20056;-68
2022/10/31 01:04:11;;;;;;;27.73;12.82;;;14.80;95.40;;;;;;4915379;29;20055;-68
2022/10/31 01:07:15;;;;;;;18.65;11.60;;;14.90;95.30;;;;;;4916090;29;20047;-68
2022/10/31 01:10:21;;;;;;;19.77;11.57;;;14.90;94.70;;;;;;4915322;29;20051;-68
2022/10/31 01:13:25;;;;;;;25.40;11.05;;;14.90;94.80;;;;;;4916295;29;20051;-68
2022/10/31 01:16:29;;;;;;;25.35;11.55;;;14.90;94.50;;;;;;4915213;29;20042;-68
2022/10/31 01:19:34;;;;;;;22.15;11.55;;;14.70;94.70;;;;;;4915127;29;20040;-68
2022/10/31 01:22:38;;;;;;;20.63;11.57;;;14.80;94.50;;;;;;4916125;29;20397;-68
2022/10/31 01:25:42;;;;;;;18.30;11.35;;;14.80;94.30;;;;;;4915025;29;20047;-67
2022/10/31 01:29:07;;;;;;;17.02;10.45;;;14.60;94.00;;;;;;4914848;29;20499;-68
2022/10/31 01:32:12;;;;;;;26.00;11.15;;;14.50;94.40;;;;;;4915318;29;20058;-68
2022/10/31 01:35:16;;;;;;;22.75;11.43;;;14.40;94.60;;;;;;4915238;29;20047;-67
2022/10/31 01:38:20;;;;;;;21.42;10.88;;;14.40;94.40;;;;;;4915408;29;20051;-67
2022/10/31 01:41:27;;;;;;;24.05;11.43;;;14.30;94.50;;;;;;4915279;29;20051;-67
2022/10/31 01:44:31;;;;;;;21.40;11.18;;;14.30;95.00;;;;;;4915438;29;20082;-67
2022/10/31 01:47:44;;;;;;;25.00;11.55;;;14.30;95.00;;;;;;4914504;29;20044;-67
2022/10/31 01:50:51;;;;;;;21.00;11.05;;;14.40;95.20;;;;;;4903795;29;20067;-67
2022/10/31 01:54:00;;;;;;;19.33;10.90;;;14.40;95.00;;;;;;4915169;29;20091;-68
2022/10/31 01:57:06;;;;;;;20.88;9.98;;;14.40;95.10;;;;;;4914753;29;20055;-68
2022/10/31 02:00:12;;;;;;;17.92;10.40;;;14.40;94.90;;;;;;4915253;29;20433;-68
2022/10/31 02:03:21;;;;;;;21.42;10.85;;;14.30;94.90;;;;;;4914913;29;20487;-69
2022/10/31 02:06:49;;;;;;;23.17;10.25;;;14.30;94.80;;;;;;4914385;29;20055;-68
2022/10/31 02:09:54;;;;;;;23.50;10.25;;;14.40;94.70;;;;;;4915323;29;20054;-68
2022/10/31 02:13:01;;;;;;;21.40;9.40;;;14.40;94.70;;;;;;4903527;29;20396;-68
2022/10/31 02:16:06;;;;;;;18.35;9.55;;;14.30;94.40;;;;;;4914236;29;20039;-68
2022/10/31 02:19:18;;;;;;;22.38;9.43;;;14.10;94.50;;;;;;4914267;29;20043;-68
2022/10/31 02:22:33;;;;;;;17.52;8.50;;;14.10;95.00;;;;;;4914236;29;20413;-67
2022/10/31 02:26:08;;;;;;;13.57;7.65;;;14.10;94.60;;;;;;4915252;29;20401;-68
2022/10/31 02:29:27;;;;;;;14.48;7.93;;;14.00;94.60;;;;;;4914134;29;20047;-68
2022/10/31 02:33:13;;;;;;;18.33;10.77;;;13.90;94.60;;;;;;4915024;29;20055;-67
2022/10/31 02:36:37;;;;;;;20.40;8.10;;;13.80;94.70;;;;;;4920359;29;20046;-67
2022/10/31 02:40:13;;;;;;;16.15;7.20;;;13.80;95.20;;;;;;4918823;29;20247;-67
2022/10/31 02:43:57;;;;;;;15.57;6.97;;;13.80;94.90;;;;;;4914902;29;20052;-68
2022/10/31 02:47:10;;;;;;;16.20;7.07;;;13.90;94.60;;;;;;4914202;29;20149;-68
2022/10/31 02:50:21;;;;;;;;;;;13.80;94.30;;;;;;4914156;29;20503;-69
2022/10/31 02:53:25;;;;;;;17.02;6.90;;;13.70;94.60;;;;;;4914237;29;19911;-69
2022/10/31 02:56:29;;;;;;;21.10;8.55;;;13.70;94.40;;;;;;4913963;29;20432;-69
2022/10/31 02:59:36;;;;;;;11.40;7.07;;;13.60;94.60;;;;;;4913963;29;20046;-69
2022/10/31 03:02:47;;;;;;;14.07;7.40;;;13.60;94.70;;;;;;4914035;29;20052;-68
2022/10/31 03:06:32;;;;;;;11.20;6.55;;;13.50;95.00;;;;;;4914782;29;20068;-68
2022/10/31 03:10:07;;;;;;;13.02;6.60;;;13.50;95.40;;;;;;4902807;29;20047;-67
2022/10/31 03:13:20;;;;;;;12.75;7.10;;;13.70;94.70;;;;;;4903351;29;20129;-66
2022/10/31 03:16:33;;;;;;;14.43;6.90;;;13.60;94.80;;;;;;4917455;29;20062;-67
2022/10/31 03:19:59;;;;;;;;;;;13.70;94.70;;;;;;4917658;29;20495;-67
2022/10/31 03:23:08;;;;;;;13.50;7.38;;;13.70;94.80;;;;;;4917121;29;19923;-67
2022/10/31 03:26:15;;;;;;;13.48;7.45;;;13.70;94.60;;;;;;4917107;29;20047;-69
2022/10/31 03:29:25;;;;;;;16.83;7.57;;;13.70;94.60;;;;;;4917493;29;20047;-67
2022/10/31 03:32:38;;;;;;;15.82;7.15;;;13.50;94.40;;;;;;4916889;29;20047;-68
2022/10/31 03:35:48;;;;;;;14.80;8.05;;;13.40;94.70;;;;;;4917244;29;20051;-67
2022/10/31 03:38:53;;;;;;;15.65;6.88;;;13.50;95.00;;;;;;4917066;29;20511;-68
2022/10/31 03:42:04;;;;;;;12.23;7.00;;;13.40;94.90;;;;;;4917123;29;20051;-68
2022/10/31 03:45:18;;;;;;;11.18;6.68;;;13.30;95.10;;;;;;4916965;29;20055;-68
2022/10/31 03:48:23;;;;;;;18.20;8.02;;;13.30;95.30;;;;;;4917503;29;20393;-69
2022/10/31 03:51:45;;;;;;;11.27;7.10;;;13.20;95.20;;;;;;4916741;29;20051;-68
2022/10/31 03:55:07;;;;;;;12.02;7.00;;;13.10;95.40;;;;;;4906297;29;20047;-69
2022/10/31 03:58:49;;;;;;;18.75;7.85;;;13.10;95.80;;;;;;4905691;29;20113;-69
2022/10/31 04:01:58;;;;;;;11.55;6.55;;;13.10;95.60;;;;;;4916836;29;20051;-68
2022/10/31 04:05:03;;;;;;;13.57;7.75;;;13.10;95.70;;;;;;4917119;29;20487;-68
2022/10/31 04:08:13;;;;;;;14.63;6.97;;;13.30;95.50;;;;;;4916528;29;20047;-68
2022/10/31 04:11:20;;;;;;;12.27;7.13;;;13.40;95.30;;;;;;4916364;29;20051;-68
2022/10/31 04:14:40;;;;;;;19.55;6.90;;;13.30;94.70;;;;;;4916531;29;20052;-68
2022/10/31 04:17:47;;;;;;;11.10;6.32;;;13.20;94.50;;;;;;4916194;29;20047;-69
2022/10/31 04:21:01;;;;;;;13.07;6.82;;;13.10;94.60;;;;;;4916151;29;20091;-69
2022/10/31 04:24:05;;;;;;;17.90;6.75;;;12.90;95.00;;;;;;4916132;29;20424;-69
2022/10/31 04:27:09;;;;;;;12.00;7.20;;;12.80;95.40;;;;;;4916514;29;20047;-68
2022/10/31 04:30:13;;;;;;;16.88;6.95;;;12.80;95.70;;;;;;4905579;29;20059;-68
2022/10/31 04:33:18;;;;;;;14.00;6.07;;;13.10;95.20;;;;;;4916867;29;20058;-69
2022/10/31 04:36:24;;;;;;;11.32;6.50;;;13.10;95.20;;;;;;4916220;29;20393;-69
2022/10/31 04:39:28;;;;;;;13.90;7.10;;;13.10;95.00;;;;;;4917077;29;20059;-69
2022/10/31 04:42:51;;;;;;;16.95;7.25;;;13.10;95.10;;;;;;4916915;29;20055;-68
2022/10/31 04:45:56;;;;;;;11.38;6.47;;;13.20;95.30;;;;;;4916688;29;20055;-68
2022/10/31 04:49:00;;;;;;;10.93;6.28;;;13.10;95.10;;;;;;4916679;29;20217;-68
2022/10/31 04:52:05;;;;;;;16.52;6.47;;;13.50;95.00;;;;;;4915983;29;20508;-68
2022/10/31 04:55:11;;;;;;;18.42;7.10;;;13.10;94.70;;;;;;4915947;29;20078;-68
2022/10/31 04:58:50;;;;;;;11.90;6.72;;;13.10;94.80;;;;;;4915497;29;20047;-68
2022/10/31 05:01:55;;;;;;;16.63;7.43;;;13.10;95.00;;;;;;4915487;29;20047;-68
2022/10/31 05:05:21;;;;;;;25.75;7.78;;;13.20;95.00;;;;;;4915390;29;20431;-68
2022/10/31 05:08:26;;;;;;;27.77;7.85;;;13.20;95.10;;;;;;4916044;29;20428;-68
2022/10/31 05:11:31;;;;;;;17.20;8.05;;;13.20;95.10;;;;;;4915293;29;20055;-68
2022/10/31 05:14:45;;;;;;;24.83;8.75;;;13.20;95.30;;;;;;4915184;29;20043;-68
2022/10/31 05:18:08;;;;;;;24.77;7.78;;;13.30;95.40;;;;;;4916140;29;20619;-67
2022/10/31 05:21:35;;;;;;;18.17;7.00;;;13.20;95.00;;;;;;4916105;29;20043;-68
2022/10/31 05:24:40;;;;;;;13.35;7.25;;;13.30;94.90;;;;;;4914952;29;20059;-68
2022/10/31 05:27:49;;;;;;;21.08;7.43;;;13.20;94.70;;;;;;4915144;29;20524;-68
2022/10/31 05:30:53;;;;;;;29.65;6.55;;;13.20;94.40;;;;;;4914862;29;20124;-68
2022/10/31 05:33:58;;;;;;;23.13;8.98;;;13.10;94.10;;;;;;4914707;29;20047;-68
2022/10/31 05:37:21;;;;;;;19.98;8.00;;;12.90;94.60;;;;;;4915421;29;20055;-69
2022/10/31 05:40:26;;;;;;;14.43;6.93;;;12.90;94.80;;;;;;4915673;29;20047;-68
2022/10/31 05:43:30;;;;;;;16.58;7.63;;;12.80;95.30;;;;;;4914838;29;20051;-68
2022/10/31 05:46:34;;;;;;;15.55;8.30;;;12.80;95.40;;;;;;4914900;29;20059;-68
2022/10/31 05:49:57;;;;;;;15.80;8.07;;;12.90;95.40;;;;;;4915007;29;20063;-68
2022/10/31 05:53:33;;;;;;;19.67;10.05;;;13.00;94.90;;;;;;4920134;29;20055;-68
2022/10/31 05:56:38;;;;;;;18.42;7.13;;;13.00;94.70;;;;;;4914551;29;20043;-67
2022/10/31 05:59:43;;;;;;;19.13;7.90;;;13.10;94.90;;;;;;4914616;29;20039;-68
2022/10/31 06:02:46;;;;;;;21.65;9.63;;;13.10;94.80;;;;;;4914613;29;20073;-68
2022/10/31 06:05:59;;;;;;;21.48;7.38;;;13.20;95.00;;;;;;4903449;29;20420;-68
2022/10/31 06:09:09;;;;;;;21.92;10.02;;;13.30;94.90;;;;;;4914674;29;20047;-68
2022/10/31 06:12:14;;;;;;;19.13;7.68;;;13.40;94.90;;;;;;4914330;29;20051;-68
2022/10/31 06:15:43;;;;;;;13.93;6.88;;;13.40;94.10;;;;;;4915408;29;20051;-68
2022/10/31 06:18:50;;;;;;;14.00;7.25;;;13.50;94.30;;;;;;4914639;29;20504;-66
2022/10/31 06:21:54;;;;;;;22.92;7.72;;;13.50;94.00;;;;;;4914943;29;20051;-67
2022/10/31 06:24:57;;;;;;;63.95;34.22;;;13.60;94.30;;;;;;4914245;29;20063;-68
2022/10/31 06:28:12;;;;;;;139.10;80.60;;;13.90;93.90;;;;;;4914297;29;20051;-68
2022/10/31 06:31:42;;;;;;;45.50;22.42;;;13.90;93.90;;;;;;4914781;29;20098;-68
2022/10/31 06:34:48;;;;;;;23.67;11.77;;;14.10;93.80;;;;;;4914208;29;20035;-68
2022/10/31 06:37:53;;;;;;;20.20;10.00;;;14.30;93.60;;;;;;4914885;29;20063;-68
2022/10/31 06:41:06;;;;;;;79.72;34.00;;;14.50;93.50;;;;;;4914042;29;20043;-68
2022/10/31 06:44:21;;;;;;;128.23;54.78;;;14.50;93.50;;;;;;4913644;29;20071;-68
2022/10/31 06:47:31;;;;;;;131.77;56.72;;;14.70;93.40;;;;;;4913848;29;20047;-68
2022/10/31 06:50:43;;;;;;;93.20;40.47;;;14.80;93.10;;;;;;4917174;29;20055;-68
2022/10/31 06:53:47;;;;;;;80.13;33.60;;;14.90;93.10;;;;;;4917576;29;20051;-69
2022/10/31 06:56:54;;;;;;;37.90;16.23;;;15.10;93.10;;;;;;4917535;29;20066;-68
2022/10/31 06:59:59;;;;;;;33.80;12.70;;;15.40;93.00;;;;;;4917907;29;20047;-68
2022/10/31 07:03:15;;;;;;;31.55;11.23;;;15.60;92.40;;;;;;4908277;29;20051;-67
2022/10/31 07:06:19;;;;;;;20.10;9.25;;;15.90;92.30;;;;;;4918449;29;20051;-66
2022/10/31 07:09:24;;;;;;;17.00;8.90;;;16.10;92.10;;;;;;4918161;29;20051;-66
2022/10/31 07:12:28;;;;;;;29.20;9.77;;;16.50;92.10;;;;;;4917791;29;20051;-68
2022/10/31 07:15:38;;;;;;;23.23;10.23;;;16.70;91.20;;;;;;4918049;29;20051;-67
2022/10/31 07:18:42;;;;;;;24.27;9.48;;;17.00;91.00;;;;;;4918107;29;20539;-68
2022/10/31 07:21:47;;;;;;;24.58;9.50;;;17.20;90.80;;;;;;4918274;29;20051;-67
2022/10/31 07:24:52;;;;;;;15.35;8.23;;;17.40;90.70;;;;;;4917963;29;20058;-67
2022/10/31 07:28:15;;;;;;;21.40;9.32;;;17.60;90.50;;;;;;4919048;29;20716;-68
2022/10/31 07:31:24;;;;;;;15.27;8.52;;;17.90;90.20;;;;;;4918154;29;20055;-69
2022/10/31 07:34:51;;;;;;;30.13;11.88;;;18.20;89.90;;;;;;4917218;29;20043;-69
2022/10/31 07:38:09;;;;;;;22.77;11.73;;;18.40;88.70;;;;;;4916989;29;20522;-69
2022/10/31 07:41:12;;;;;;;22.40;12.35;;;18.60;88.80;;;;;;4916880;29;20051;-68
2022/10/31 07:44:20;;;;;;;24.23;12.18;;;18.80;88.60;;;;;;4916620;29;20072;-68
2022/10/31 07:47:23;;;;;;;31.42;13.40;;;19.00;88.00;;;;;;4917004;29;20208;-68
2022/10/31 07:50:40;;;;;;;31.17;12.90;;;19.00;87.40;;;;;;4917812;29;20059;-69
2022/10/31 07:54:02;;;;;;;27.80;13.65;;;19.10;87.20;;;;;;4917055;29;20047;-68
2022/10/31 07:57:08;;;;;;;28.27;15.52;;;19.00;88.10;;;;;;4916454;29;20051;-69
2022/10/31 08:00:13;;;;;;;26.55;14.05;;;19.00;88.50;;;;;;4916175;29;20043;-69
2022/10/31 08:03:20;;;;;;;24.25;13.57;;;19.00;88.10;;;;;;4917225;29;20618;-70
2022/10/31 08:06:42;;;;;;;25.13;11.98;;;19.20;88.60;;;;;;4915602;29;20059;-70
2022/10/31 08:09:58;;;;;;;25.63;10.80;;;19.40;87.90;;;;;;4916272;29;20047;-68
2022/10/31 08:13:11;;;;;;;19.83;9.15;;;19.60;86.80;;;;;;4915078;29;20519;-69
2022/10/31 08:16:18;;;;;;;19.20;10.00;;;19.80;86.30;;;;;;4916369;29;20051;-69
2022/10/31 08:19:37;;;;;;;22.55;10.73;;;19.90;85.10;;;;;;4916254;29;20389;-69
2022/10/31 08:22:41;;;;;;;22.77;11.10;;;20.10;84.60;;;;;;4916421;29;20055;-69
2022/10/31 08:25:47;;;;;;;20.33;10.75;;;20.20;85.00;;;;;;4916002;29;20072;-69
2022/10/31 08:28:52;;;;;;;26.35;12.15;;;20.30;84.80;;;;;;4916425;29;20047;-67
2022/10/31 08:31:58;;;;;;;23.02;12.13;;;20.40;84.90;;;;;;4916200;29;20400;-67
2022/10/31 08:35:21;;;;;;;17.63;10.45;;;20.50;84.10;;;;;;4916908;29;20047;-65
2022/10/31 08:38:51;;;;;;;21.02;12.02;;;20.50;84.60;;;;;;4916729;29;20401;-69
2022/10/31 08:41:55;;;;;;;24.85;11.30;;;20.60;84.40;;;;;;4914796;29;20047;-69
2022/10/31 08:45:00;;;;;;;35.28;11.48;;;20.70;84.30;;;;;;4915609;29;20063;-71
2022/10/31 08:48:06;;;;;;;21.83;10.38;;;20.80;83.80;;;;;;4915734;29;20051;-67
2022/10/31 08:51:11;;;;;;;20.02;9.40;;;21.00;83.20;;;;;;4915608;29;20543;-68
2022/10/31 08:54:15;;;;;;;21.88;9.63;;;21.10;82.80;;;;;;4915695;29;20055;-68
2022/10/31 08:57:39;;;;;;;17.70;9.43;;;21.20;81.60;;;;;;4925137;29;20043;-66
2022/10/31 09:00:46;;;;;;;21.10;9.55;;;21.30;81.30;;;;;;4904595;29;20056;-68
2022/10/31 09:03:56;;;;;;;23.90;9.88;;;21.50;81.40;;;;;;4915355;29;20392;-67
2022/10/31 09:07:00;;;;;;;25.30;10.25;;;21.60;80.50;;;;;;4915198;29;20055;-71
2022/10/31 09:10:04;;;;;;;17.73;9.93;;;21.80;80.00;;;;;;4915332;29;20058;-67
2022/10/31 09:13:17;;;;;;;18.55;9.80;;;21.90;80.20;;;;;;4914648;29;20047;-66
2022/10/31 09:16:44;;;;;;;22.13;11.07;;;22.00;80.10;;;;;;4915558;29;20055;-67
2022/10/31 09:19:54;;;;;;;25.40;11.55;;;22.20;80.20;;;;;;4914257;29;20665;-67
2022/10/31 09:23:10;;;;;;;18.90;10.60;;;22.30;79.80;;;;;;4915220;29;20067;-67
2022/10/31 09:26:16;;;;;;;25.10;10.57;;;22.50;78.60;;;;;;4914839;29;20063;-68
2022/10/31 09:29:55;;;;;;;24.05;11.95;;;22.70;78.60;;;;;;4915652;29;20157;-68
2022/10/31 09:33:02;;;;;;;24.27;11.18;;;22.80;79.10;;;;;;4914997;29;20397;-68
2022/10/31 09:36:06;;;;;;;20.98;10.43;;;23.00;78.60;;;;;;4914658;29;20102;-68
2022/10/31 09:39:11;;;;;;;18.38;10.05;;;23.10;79.00;;;;;;4914815;29;20047;-68
2022/10/31 09:42:34;;;;;;;20.40;10.02;;;23.20;80.30;;;;;;4914921;29;20043;-67
2022/10/31 09:45:49;;;;;;;16.73;8.73;;;23.30;80.80;;;;;;4914501;29;20070;-67
2022/10/31 09:49:33;;;;;;;17.98;9.85;;;23.50;80.30;;;;;;4914177;29;20048;-68
2022/10/31 09:52:40;;;;;;;14.75;8.18;;;23.60;79.10;;;;;;4914817;29;20050;-67
2022/10/31 09:55:47;;;;;;;14.27;8.63;;;23.70;79.20;;;;;;4914436;29;20508;-67
2022/10/31 09:58:57;;;;;;;16.15;7.78;;;23.80;78.50;;;;;;4914782;29;20058;-67
2022/10/31 10:02:16;;;;;;;14.45;7.30;;;23.90;78.60;;;;;;4903549;29;20055;-68
2022/10/31 10:05:57;;;;;;;13.57;7.45;;;24.00;77.80;;;;;;4915145;29;20058;-68
2022/10/31 10:09:13;;;;;;;13.60;6.43;;;24.10;77.30;;;;;;4914218;29;20058;-66
2022/10/31 10:12:46;;;;;;;15.90;6.05;;;24.20;76.40;;;;;;4925285;29;20055;-68
2022/10/31 10:16:24;;;;;;;10.48;5.90;;;24.30;75.50;;;;;;4915248;29;20047;-68
2022/10/31 10:20:09;;;;;;;13.00;5.70;;;24.40;75.00;;;;;;4914953;29;20401;-68
2022/10/31 10:23:35;;;;;;;14.13;6.38;;;24.50;75.80;;;;;;4915324;29;20492;-67
2022/10/31 10:26:57;;;;;;;7.65;4.20;;;24.60;74.40;;;;;;4914828;29;20055;-68
2022/10/31 10:30:17;;;;;;;19.30;6.43;;;24.60;73.40;;;;;;4914947;29;20052;-67
2022/10/31 10:33:35;;;;;;;10.02;4.45;;;24.60;72.90;;;;;;4914817;29;20055;-67
2022/10/31 10:36:44;;;;;;;11.20;4.93;;;24.70;71.30;;;;;;4914645;29;20051;-67
2022/10/31 10:39:55;;;;;;;10.85;4.63;;;24.70;70.60;;;;;;4913774;29;20044;-67
2022/10/31 10:43:37;;;;;;;11.97;5.50;;;24.70;70.30;;;;;;4914774;29;20075;-67
2022/10/31 10:50:17;;;;;;;10.95;5.60;;;24.60;70.70;;;;;;4913460;29;20047;-67
2022/10/31 10:53:37;;;;;;;8.65;4.60;;;24.60;71.00;;;;;;4914667;29;20051;-67
2022/10/31 10:57:08;;;;;;;10.10;5.95;;;24.60;71.90;;;;;;4914460;29;20055;-67
2022/10/31 11:00:24;;;;;;;15.90;6.97;;;24.50;71.80;;;;;;4913922;29;20055;-68
2022/10/31 11:03:29;;;;;;;12.05;5.78;;;24.50;72.30;;;;;;4913536;29;20047;-67
2022/10/31 11:06:33;;;;;;;11.27;5.60;;;24.40;73.00;;;;;;4902535;29;20056;-67
2022/10/31 11:09:37;;;;;;;15.80;6.68;;;24.40;73.20;;;;;;4913554;29;20061;-67
2022/10/31 11:12:44;;;;;;;12.80;5.72;;;24.30;73.60;;;;;;4914773;29;20047;-66
2022/10/31 11:15:59;;;;;;;11.20;6.80;;;24.30;74.50;;;;;;4914433;29;20047;-67
2022/10/31 11:19:26;;;;;;;13.30;6.35;;;24.20;73.60;;;;;;4914799;29;20070;-67
2022/10/31 11:22:31;;;;;;;8.95;4.70;;;24.20;73.70;;;;;;4914190;29;20071;-67
2022/10/31 11:25:35;;;;;;;13.63;5.35;;;24.10;73.60;;;;;;4913541;29;20055;-67
2022/10/31 11:28:39;;;;;;;11.45;5.57;;;24.00;73.60;;;;;;4914024;29;20047;-67
2022/10/31 11:31:45;;;;;;;11.75;5.57;;;24.00;74.20;;;;;;4914291;29;20051;-67
2022/10/31 11:34:56;;;;;;;10.43;5.35;;;23.90;73.20;;;;;;4914726;29;20055;-67
2022/10/31 11:38:03;;;;;;;14.15;4.90;;;23.90;72.90;;;;;;4917503;29;20063;-67
2022/10/31 11:41:17;;;;;;;14.00;5.30;;;23.80;73.80;;;;;;4916901;29;20095;-69
2022/10/31 11:44:30;;;;;;;7.43;3.83;;;23.80;73.00;;;;;;4917560;29;20039;-68
2022/10/31 11:47:34;;;;;;;16.50;4.97;;;23.80;72.70;;;;;;4917378;29;20528;-68
2022/10/31 11:50:41;;;;;;;10.65;4.93;;;23.80;72.20;;;;;;4917807;29;20076;-68
2022/10/31 11:53:52;;;;;;;7.35;3.97;;;23.80;72.20;;;;;;4918326;29;20059;-68
2022/10/31 11:56:56;;;;;;;10.15;3.78;;;23.80;72.30;;;;;;4917762;29;20047;-68
2022/10/31 12:00:04;;;;;;;6.88;4.10;;;23.80;71.80;;;;;;4917499;29;20130;-68
2022/10/31 12:03:22;;;;;;;7.13;3.40;;;23.70;71.00;;;;;;4917532;29;20052;-68
2022/10/31 12:06:38;;;;;;;7.38;4.05;;;23.70;70.50;;;;;;4917049;29;20055;-67
2022/10/31 12:09:42;;;;;;;9.27;4.07;;;23.70;70.50;;;;;;4917513;29;20055;-67
2022/10/31 12:13:14;;;;;;;11.57;4.70;;;23.70;70.20;;;;;;4916747;29;20051;-68
2022/10/31 12:16:53;;;;;;;13.82;5.15;;;23.70;70.40;;;;;;4917097;29;20059;-67
2022/10/31 12:20:12;;;;;;;14.32;4.97;;;23.70;70.60;;;;;;4917462;29;20039;-67
2022/10/31 12:23:43;;;;;;;8.65;4.93;;;23.60;70.30;;;;;;4917349;29;20054;-67
2022/10/31 12:27:42;;;;;;;12.48;4.00;;;23.60;70.30;;;;;;4916728;29;20055;-68
2022/10/31 12:31:07;;;;;;;10.68;4.35;;;23.60;70.30;;;;;;4914519;29;20063;-66
2022/10/31 12:34:41;;;;;;;8.60;4.05;;;23.60;70.00;;;;;;4916754;29;20062;-67
2022/10/31 12:38:02;;;;;;;8.45;3.33;;;23.50;69.60;;;;;;4916522;29;20396;-66
2022/10/31 12:41:23;;;;;;;6.90;3.78;;;23.50;69.50;;;;;;4916508;29;20054;-68
2022/10/31 12:44:55;;;;;;;7.55;4.55;;;23.60;69.20;;;;;;4916728;29;20047;-67
2022/10/31 12:48:05;;;;;;;10.93;4.15;;;23.50;69.00;;;;;;4915160;29;20067;-69
2022/10/31 12:51:45;;;;;;;17.35;5.90;;;23.50;69.30;;;;;;4915632;29;20047;-68
2022/10/31 12:55:20;;;;;;;14.73;5.85;;;23.50;69.30;;;;;;4917839;29;20039;-68
2022/10/31 12:58:30;;;;;;;10.18;4.45;;;23.50;69.80;;;;;;4916261;29;20099;-67
2022/10/31 13:01:40;;;;;;;15.10;5.55;;;23.50;69.70;;;;;;4916399;29;20046;-67
2022/10/31 13:04:48;;;;;;;14.25;6.18;;;23.50;70.30;;;;;;4916329;29;20063;-68
2022/10/31 13:08:01;;;;;;;11.07;5.00;;;23.50;70.50;;;;;;4916077;29;20110;-68
2022/10/31 13:11:27;;;;;;;15.77;5.10;;;23.50;70.60;;;;;;4915986;29;20054;-68
2022/10/31 13:14:41;;;;;;;11.25;5.07;;;23.50;70.90;;;;;;4916132;29;20059;-68
2022/10/31 13:17:50;;;;;;;15.05;5.97;;;23.40;71.00;;;;;;4915916;29;20048;-67
2022/10/31 13:20:58;;;;;;;10.18;4.80;;;23.40;71.60;;;;;;4915846;29;20531;-67
2022/10/31 13:24:07;;;;;;;19.05;5.35;;;23.40;71.60;;;;;;4916068;29;20388;-66
2022/10/31 13:27:21;;;;;;;13.77;5.47;;;23.40;71.60;;;;;;4915859;29;20069;-65
2022/10/31 13:30:36;;;;;;;11.00;5.60;;;23.40;72.10;;;;;;4915548;29;20039;-65
2022/10/31 13:33:49;;;;;;;10.88;6.68;;;23.40;73.20;;;;;;4916053;29;20507;-68
2022/10/31 13:37:14;;;;;;;19.45;9.15;;;23.40;76.60;;;;;;4915613;29;20039;-70
2022/10/31 13:40:38;;;;;;;14.25;8.38;;;23.40;79.00;;;;;;4914967;29;20043;-67
2022/10/31 13:44:00;;;;;;;16.95;8.38;;;23.40;80.50;;;;;;4914787;29;20035;-69
2022/10/31 13:47:21;;;;;;;11.85;7.93;;;23.30;80.80;;;;;;4915168;29;20059;-66
2022/10/31 13:50:28;;;;;;;15.75;8.02;;;23.30;82.30;;;;;;4915395;29;20059;-68
2022/10/31 13:53:39;;;;;;;16.25;10.00;;;23.30;82.90;;;;;;4915412;29;20047;-68
2022/10/31 13:56:48;;;;;;;18.38;9.98;;;23.30;83.70;;;;;;4915088;29;20409;-66
2022/10/31 13:59:55;;;;;;;23.75;10.13;;;23.20;85.20;;;;;;4914912;29;20429;-66
2022/10/31 14:03:00;;;;;;;17.58;9.98;;;23.20;86.40;;;;;;4915283;29;20039;-68
2022/10/31 14:06:05;;;;;;;17.75;10.18;;;23.20;87.50;;;;;;4915072;29;20051;-68
2022/10/31 14:09:21;;;;;;;13.80;8.80;;;23.20;88.30;;;;;;4915395;29;20059;-68
2022/10/31 14:12:45;;;;;;;27.13;9.25;;;23.10;88.80;;;;;;4915101;29;20051;-68
2022/10/31 14:16:00;;;;;;;20.85;9.73;;;23.10;89.10;;;;;;4915366;29;20051;-68
2022/10/31 14:19:19;;;;;;;24.50;10.35;;;23.10;89.20;;;;;;4915188;29;20047;-68
2022/10/31 14:22:23;;;;;;;15.57;9.18;;;23.10;89.90;;;;;;4915166;29;20117;-67
2022/10/31 14:25:35;;;;;;;14.88;9.05;;;23.00;90.00;;;;;;4914924;29;20059;-67
2022/10/31 14:28:39;;;;;;;18.95;10.75;;;23.00;89.90;;;;;;4914898;29;20055;-67
2022/10/31 14:31:56;;;;;;;15.70;8.68;;;23.00;90.00;;;;;;4914188;29;20416;-68
2022/10/31 14:35:02;;;;;;;17.30;10.63;;;23.00;90.30;;;;;;4915159;29;20043;-69
2022/10/31 14:38:23;;;;;;;18.52;9.85;;;22.90;90.30;;;;;;4915083;29;20071;-69
2022/10/31 14:41:40;;;;;;;16.75;10.00;;;22.90;90.70;;;;;;4914017;29;20059;-66
2022/10/31 14:45:17;;;;;;;17.92;10.77;;;22.90;91.00;;;;;;4914625;29;20050;-69
2022/10/31 14:48:42;;;;;;;16.35;9.27;;;22.80;91.40;;;;;;4918031;29;20059;-67
2022/10/31 14:51:50;;;;;;;22.67;11.43;;;22.80;91.50;;;;;;4914455;29;20043;-68
2022/10/31 14:54:58;;;;;;;21.88;10.98;;;22.80;91.80;;;;;;4914733;29;20057;-67
2022/10/31 14:58:06;;;;;;;17.60;9.52;;;22.80;91.90;;;;;;4914748;29;20043;-68
2022/10/31 15:01:22;;;;;;;24.20;9.77;;;22.80;92.10;;;;;;4914206;29;20515;-68
2022/10/31 15:04:29;;;;;;;17.27;9.02;;;22.70;92.30;;;;;;4914606;29;20044;-67
2022/10/31 15:07:34;;;;;;;14.93;8.45;;;22.70;92.50;;;;;;4914591;29;20062;-67
2022/10/31 15:10:44;;;;;;;14.48;8.35;;;22.70;92.60;;;;;;4915779;29;20047;-67
2022/10/31 15:13:50;;;;;;;18.88;9.93;;;22.60;92.70;;;;;;4918255;29;20047;-68
2022/10/31 15:16:56;;;;;;;20.33;11.05;;;22.60;93.00;;;;;;4918131;29;20063;-65
2022/10/31 15:20:01;;;;;;;16.70;9.85;;;22.60;93.10;;;;;;4918282;29;20047;-66
2022/10/31 15:23:10;;;;;;;17.48;9.65;;;22.50;93.20;;;;;;4917742;29;20059;-65
2022/10/31 15:26:24;;;;;;;21.25;10.13;;;22.50;93.40;;;;;;4917761;29;20079;-65
2022/10/31 15:29:29;;;;;;;16.10;9.65;;;22.40;93.50;;;;;;4906036;29;20063;-66
2022/10/31 15:32:33;;;;;;;15.85;9.77;;;22.40;93.70;;;;;;4918038;29;20523;-67
2022/10/31 15:35:59;;;;;;;19.40;11.20;;;22.40;93.90;;;;;;4917136;29;20083;-68
2022/10/31 15:39:03;;;;;;;20.55;12.20;;;22.40;94.10;;;;;;4916144;29;20069;-68
2022/10/31 15:42:29;;;;;;;20.13;11.70;;;22.30;94.40;;;;;;4917706;29;20059;-69
2022/10/31 15:45:35;;;;;;;20.98;11.50;;;22.30;94.70;;;;;;4916610;29;20047;-67
2022/10/31 15:48:43;;;;;;;26.23;13.50;;;22.20;94.80;;;;;;4917553;29;20408;-67
2022/10/31 15:51:47;;;;;;;27.73;15.13;;;22.20;95.00;;;;;;4917374;29;20039;-67
2022/10/31 15:55:02;;;;;;;24.75;13.25;;;22.20;95.10;;;;;;4917615;29;20511;-68
2022/10/31 15:58:14;;;;;;;22.90;14.15;;;22.10;95.30;;;;;;4917752;29;20044;-69
2022/10/31 16:01:23;;;;;;;24.83;15.75;;;22.10;95.50;;;;;;4916619;29;20408;-69
2022/10/31 16:04:27;;;;;;;42.33;18.25;;;22.00;95.90;;;;;;4917332;29;20063;-69
2022/10/31 16:07:32;;;;;;;26.15;16.35;;;21.90;96.10;;;;;;4916464;29;20055;-68
2022/10/31 16:10:39;;;;;;;33.63;16.33;;;21.90;96.40;;;;;;4916948;29;20043;-69
2022/10/31 16:14:14;;;;;;;33.13;17.17;;;21.90;96.60;;;;;;4917078;29;20051;-68
2022/10/31 16:17:22;;;;;;;29.20;17.25;;;21.80;96.70;;;;;;4916819;29;20427;-68
2022/10/31 16:20:31;;;;;;;30.77;15.65;;;21.80;96.80;;;;;;4916952;29;20047;-69
2022/10/31 16:23:38;;;;;;;36.08;18.50;;;21.70;96.90;;;;;;4917058;29;20051;-69
2022/10/31 16:26:46;;;;;;;39.45;17.58;;;21.70;97.00;;;;;;4916641;29;20063;-68
2022/10/31 16:29:51;;;;;;;36.17;17.52;;;21.60;97.20;;;;;;4916784;29;20388;-68